Time;durP1;ratioP1;P1;durP2;ratioP2;P2;SDS_P1;SDS_P2;PMS_P1;PMS_P2;Temp;Humidity;BMP_temperature;BMP_pressure;BME280_temperature;BME280_humidity;BME280_pressure;Samples;Min_cycle;Max_cycle;Signal;HPM_P1;HPM_P2
2022/08/06 00:01:07;;;;;;;0.98;0.63;;;10.60;1.00;;;;;;5071354;28;20025;-79
2022/08/06 00:03:33;;;;;;;2.10;0.60;;;10.60;1.00;;;;;;5075049;28;20492;-78
2022/08/06 00:05:58;;;;;;;0.65;0.47;;;10.60;1.00;;;;;;5072774;28;20078;-78
2022/08/06 00:08:24;;;;;;;2.50;0.70;;;10.60;1.00;;;;;;5072473;28;20032;-79
2022/08/06 00:10:49;;;;;;;1.40;0.50;;;10.50;1.00;;;;;;5069216;28;20445;-78
2022/08/06 00:13:15;;;;;;;3.20;0.40;;;10.50;1.00;;;;;;5068882;28;20029;-79
2022/08/06 00:15:41;;;;;;;1.23;0.40;;;10.40;1.00;;;;;;5072760;28;20032;-79
2022/08/06 00:18:07;;;;;;;1.33;0.70;;;10.30;1.00;;;;;;5074020;28;20021;-79
2022/08/06 00:20:33;;;;;;;3.08;0.50;;;10.30;1.00;;;;;;5071591;28;20021;-79
2022/08/06 00:22:59;;;;;;;0.77;0.55;;;10.30;1.00;;;;;;5068138;28;20025;-79
2022/08/06 00:25:24;;;;;;;2.67;1.40;;;10.30;1.00;;;;;;5071031;28;20021;-79
2022/08/06 00:27:50;;;;;;;2.25;0.50;;;10.20;1.00;;;;;;5072314;28;20547;-79
2022/08/06 00:30:15;;;;;;;1.25;0.60;;;10.20;1.00;;;;;;5069430;28;20028;-79
2022/08/06 00:32:41;;;;;;;1.38;0.60;;;10.20;12.60;;;;;;5051970;22;20069;-76
2022/08/06 00:35:07;;;;;;;0.63;0.50;;;10.20;35.60;;;;;;5019604;28;20021;-76
2022/08/06 00:37:32;;;;;;;3.13;0.90;;;10.20;56.30;;;;;;5017911;28;20060;-75
2022/08/06 00:39:59;;;;;;;2.15;0.98;;;10.10;1.00;;;;;;5017641;28;20022;-76
2022/08/06 00:42:26;;;;;;;3.33;0.73;;;10.10;21.50;;;;;;5019636;28;20025;-76
2022/08/06 00:44:52;;;;;;;1.45;0.50;;;10.10;60.20;;;;;;5022161;28;20022;-76
2022/08/06 00:47:17;;;;;;;0.50;0.50;;;10.10;57.20;;;;;;5024472;28;20033;-76
2022/08/06 00:49:43;;;;;;;4.20;0.50;;;10.20;70.40;;;;;;5024580;28;20034;-76
2022/08/06 00:52:09;;;;;;;2.40;0.52;;;10.20;25.20;;;;;;5024354;28;20057;-76
2022/08/06 00:54:34;;;;;;;0.80;0.60;;;10.00;9.80;;;;;;5025605;28;20026;-76
2022/08/06 00:57:00;;;;;;;0.77;0.50;;;10.00;1.00;;;;;;5024376;28;20153;-76
2022/08/06 00:59:25;;;;;;;1.17;0.70;;;10.00;1.00;;;;;;5023643;28;20037;-76
2022/08/06 01:01:51;;;;;;;2.05;0.63;;;10.00;7.20;;;;;;5024089;28;20053;-76
2022/08/06 01:04:18;;;;;;;2.40;0.68;;;10.00;17.40;;;;;;5027782;28;20022;-76
2022/08/06 01:06:43;;;;;;;1.40;0.60;;;9.90;8.90;;;;;;5028293;28;20033;-76
2022/08/06 01:09:09;;;;;;;1.48;0.68;;;9.90;1.00;;;;;;5029385;28;20033;-76
2022/08/06 01:11:35;;;;;;;1.73;0.50;;;9.80;33.10;;;;;;5030864;28;20042;-76
2022/08/06 01:14:01;;;;;;;0.55;0.40;;;9.80;53.40;;;;;;5029498;28;20086;-76
2022/08/06 01:16:34;;;;;;;0.70;0.70;;;9.80;22.70;;;;;;5028551;28;20036;-76
2022/08/06 01:19:09;;;;;;;0.80;0.60;;;9.70;42.20;;;;;;5030365;28;20041;-76
2022/08/06 01:21:49;;;;;;;0.93;0.80;;;9.80;75.00;;;;;;5029503;28;20026;-76
2022/08/06 01:24:32;;;;;;;2.47;1.00;;;9.80;75.70;;;;;;5027349;28;20030;-76
2022/08/06 01:27:24;;;;;;;3.33;1.05;;;9.80;93.30;;;;;;5030551;28;20413;-76
2022/08/06 01:29:55;;;;;;;3.00;0.90;;;9.90;99.90;;;;;;5030002;28;20030;-76
2022/08/06 01:32:23;;;;;;;;;;;10.00;99.90;;;;;;5028273;28;20050;-76
2022/08/06 01:34:54;;;;;;;2.28;1.30;;;10.20;99.90;;;;;;5025347;28;19905;-76
2022/08/06 01:37:52;;;;;;;3.22;1.38;;;10.30;99.90;;;;;;5021732;28;20026;-76
2022/08/06 01:40:24;;;;;;;3.75;1.48;;;10.50;91.30;;;;;;5018657;28;20549;-76
2022/08/06 01:42:51;;;;;;;;;;;10.70;60.00;;;;;;5022716;28;20034;-76
2022/08/06 01:45:20;;;;;;;1.35;0.93;;;10.80;43.10;;;;;;5025226;28;19909;-76
2022/08/06 01:47:49;;;;;;;2.80;1.08;;;10.80;24.10;;;;;;5028022;28;20080;-76
2022/08/06 01:50:19;;;;;;;2.42;1.05;;;10.80;46.40;;;;;;5029749;28;20034;-76
2022/08/06 01:52:46;;;;;;;1.77;1.30;;;10.80;1.00;;;;;;5029855;28;20022;-76
2022/08/06 01:55:15;;;;;;;3.00;1.30;;;10.60;1.00;;;;;;5030872;28;20049;-76
2022/08/06 01:57:49;;;;;;;3.80;1.20;;;10.60;23.60;;;;;;5029384;28;20018;-76
2022/08/06 02:00:16;;;;;;;1.95;1.52;;;10.50;20.50;;;;;;5028463;28;20030;-76
2022/08/06 02:02:45;;;;;;;1.67;1.17;;;10.50;1.00;;;;;;5030102;28;20038;-76
2022/08/06 02:05:13;;;;;;;2.33;1.40;;;10.40;23.70;;;;;;5031307;28;20045;-76
2022/08/06 02:07:41;;;;;;;2.00;1.20;;;10.30;4.70;;;;;;5030420;28;20021;-76
2022/08/06 02:10:09;;;;;;;2.10;1.05;;;10.30;64.20;;;;;;5031204;28;20034;-76
2022/08/06 02:12:39;;;;;;;1.67;1.13;;;10.30;68.50;;;;;;5030205;28;20022;-76
2022/08/06 02:15:07;;;;;;;3.35;1.33;;;10.20;62.40;;;;;;5029712;28;20034;-76
2022/08/06 02:17:37;;;;;;;1.67;1.10;;;10.30;93.70;;;;;;5029588;28;20034;-76
2022/08/06 02:20:05;;;;;;;4.40;1.30;;;10.30;99.90;;;;;;5030514;28;20030;-76
2022/08/06 02:22:35;;;;;;;2.72;1.42;;;10.40;99.90;;;;;;5029270;28;20061;-76
2022/08/06 02:25:05;;;;;;;2.85;1.50;;;10.50;74.80;;;;;;5028273;28;20030;-76
2022/08/06 02:27:32;;;;;;;2.00;1.60;;;10.60;7.00;;;;;;5027286;28;20085;-76
2022/08/06 02:30:00;;;;;;;3.47;1.80;;;10.70;62.60;;;;;;5024664;28;20041;-75
2022/08/06 02:32:27;;;;;;;8.77;2.08;;;10.90;99.90;;;;;;5029404;28;20069;-76
2022/08/06 02:34:53;;;;;;;4.60;1.90;;;11.10;97.20;;;;;;5037127;28;20085;-77
2022/08/06 02:37:23;;;;;;;16.42;3.72;;;11.40;99.90;;;;;;5035238;28;20030;-78
2022/08/06 02:39:55;;;;;;;3.92;2.15;;;11.50;99.90;;;;;;5017623;28;20072;-79
2022/08/06 02:42:29;;;;;;;6.15;1.70;;;11.70;99.90;;;;;;5015170;28;20037;-79
2022/08/06 02:45:19;;;;;;;4.72;1.58;;;12.00;99.90;;;;;;5013809;28;20026;-79
2022/08/06 02:48:00;;;;;;;5.72;1.83;;;11.90;99.90;;;;;;5013712;28;20029;-79
2022/08/06 02:50:40;;;;;;;4.15;1.40;;;11.70;99.90;;;;;;5013506;28;20048;-78
2022/08/06 02:53:10;;;;;;;4.75;1.48;;;11.70;99.90;;;;;;5013600;28;20030;-79
2022/08/06 02:55:41;;;;;;;7.25;1.48;;;11.60;99.90;;;;;;5013561;28;20026;-78
2022/08/06 02:58:12;;;;;;;4.05;1.17;;;11.50;99.90;;;;;;5013381;28;20113;-78
2022/08/06 03:00:41;;;;;;;3.85;1.27;;;11.40;99.90;;;;;;5012274;28;20482;-79
2022/08/06 03:03:07;;;;;;;6.00;1.30;;;11.20;99.90;;;;;;5013199;28;20026;-79
2022/08/06 03:05:35;;;;;;;2.67;1.23;;;11.10;99.90;;;;;;5012116;28;20485;-79
2022/08/06 03:08:01;;;;;;;1.77;1.05;;;11.00;99.90;;;;;;5011881;28;20064;-78
2022/08/06 03:10:29;;;;;;;1.95;1.00;;;10.90;99.90;;;;;;5013062;28;20071;-79
2022/08/06 03:12:57;;;;;;;2.42;1.40;;;10.80;99.90;;;;;;5013166;28;20026;-79
2022/08/06 03:15:24;;;;;;;3.47;1.88;;;10.70;99.90;;;;;;5011916;28;20397;-79
2022/08/06 03:17:51;;;;;;;5.25;2.08;;;10.70;99.90;;;;;;5013209;28;20026;-79
2022/08/06 03:20:19;;;;;;;2.60;2.13;;;10.70;99.90;;;;;;5013246;28;20022;-79
2022/08/06 03:22:48;;;;;;;3.83;2.25;;;10.70;99.90;;;;;;5013893;28;20367;-79
2022/08/06 03:25:16;;;;;;;2.10;1.90;;;10.60;99.90;;;;;;5016551;28;20022;-78
2022/08/06 03:27:43;;;;;;;2.38;1.83;;;10.60;99.90;;;;;;5016555;28;20022;-79
2022/08/06 03:30:10;;;;;;;2.53;2.33;;;10.70;99.90;;;;;;5016351;28;20470;-79
2022/08/06 03:32:37;;;;;;;3.20;2.28;;;10.90;99.90;;;;;;5016107;28;20125;-78
2022/08/06 03:35:05;;;;;;;3.55;2.33;;;11.00;99.90;;;;;;5015338;28;20482;-78
2022/08/06 03:37:33;;;;;;;8.02;2.35;;;11.00;99.90;;;;;;5016691;28;20041;-78
2022/08/06 03:40:00;;;;;;;5.07;2.28;;;11.00;99.90;;;;;;5016371;28;20020;-79
2022/08/06 03:42:26;;;;;;;2.63;2.42;;;10.70;99.90;;;;;;5016244;28;20024;-79
2022/08/06 03:44:52;;;;;;;4.65;2.17;;;10.60;99.90;;;;;;5016265;28;20104;-78
2022/08/06 03:47:32;;;;;;;3.15;2.10;;;10.50;99.90;;;;;;5016019;28;20118;-78
2022/08/06 03:50:06;;;;;;;2.53;1.90;;;10.40;99.90;;;;;;5016466;28;20022;-78
2022/08/06 03:52:36;;;;;;;2.40;2.20;;;10.40;99.90;;;;;;5014755;28;20095;-79
2022/08/06 03:55:05;;;;;;;5.82;2.72;;;10.40;99.90;;;;;;5016082;28;20025;-78
2022/08/06 03:57:40;;;;;;;2.83;2.45;;;10.20;99.90;;;;;;5014772;28;20048;-78
2022/08/06 04:00:08;;;;;;;5.35;2.35;;;10.30;99.90;;;;;;5015729;28;20076;-78
2022/08/06 04:02:38;;;;;;;3.08;2.30;;;10.40;99.90;;;;;;5016019;28;20025;-78
2022/08/06 04:05:06;;;;;;;3.13;2.28;;;10.40;99.90;;;;;;5016018;28;20463;-78
2022/08/06 04:07:31;;;;;;;2.03;1.83;;;10.40;99.90;;;;;;5015654;28;20037;-78
2022/08/06 04:09:59;;;;;;;3.30;2.20;;;10.40;99.90;;;;;;5016004;28;20041;-78
2022/08/06 04:12:25;;;;;;;3.50;2.20;;;10.30;99.90;;;;;;5015714;28;20080;-79
2022/08/06 04:14:51;;;;;;;3.83;2.08;;;10.30;99.90;;;;;;5015586;28;20026;-78
2022/08/06 04:17:17;;;;;;;5.45;2.45;;;10.20;99.90;;;;;;5015699;28;20135;-79
2022/08/06 04:19:44;;;;;;;3.10;2.13;;;10.20;99.90;;;;;;5015922;28;20033;-79
2022/08/06 04:22:10;;;;;;;2.20;1.98;;;10.20;99.90;;;;;;5014446;28;20026;-79
2022/08/06 04:24:36;;;;;;;3.55;2.00;;;10.30;99.90;;;;;;5015470;28;20033;-78
2022/08/06 04:27:05;;;;;;;6.07;2.30;;;10.20;99.90;;;;;;5015535;28;20041;-78
2022/08/06 04:29:32;;;;;;;3.63;1.92;;;10.30;99.90;;;;;;5015321;28;20057;-78
2022/08/06 04:31:59;;;;;;;2.83;2.20;;;10.30;99.90;;;;;;5015034;28;20072;-78
2022/08/06 04:34:26;;;;;;;3.67;2.03;;;10.40;99.90;;;;;;5013610;28;20026;-78
2022/08/06 04:36:53;;;;;;;3.17;1.95;;;10.40;99.90;;;;;;5015604;28;20029;-78
2022/08/06 04:39:20;;;;;;;4.15;2.10;;;10.50;99.90;;;;;;5015679;28;20477;-78
2022/08/06 04:41:47;;;;;;;3.17;1.90;;;10.70;99.90;;;;;;5015334;28;20497;-78
2022/08/06 04:44:12;;;;;;;4.35;1.80;;;10.70;99.90;;;;;;5015052;28;20025;-78
2022/08/06 04:46:38;;;;;;;3.25;1.55;;;10.70;99.90;;;;;;5014956;28;20026;-79
2022/08/06 04:49:04;;;;;;;3.65;1.70;;;10.70;99.90;;;;;;5015174;28;20021;-78
2022/08/06 04:51:30;;;;;;;6.50;1.73;;;10.80;99.90;;;;;;5015028;28;20105;-78
2022/08/06 04:53:56;;;;;;;1.90;1.70;;;10.90;99.90;;;;;;5015054;28;20037;-79
2022/08/06 04:56:22;;;;;;;3.97;1.80;;;10.90;99.90;;;;;;5015109;28;20048;-78
2022/08/06 04:58:47;;;;;;;2.13;1.80;;;10.90;99.90;;;;;;5014869;28;20390;-78
2022/08/06 05:01:13;;;;;;;3.40;1.83;;;11.00;99.90;;;;;;5014904;28;20561;-78
2022/08/06 05:03:39;;;;;;;2.92;2.20;;;11.00;99.90;;;;;;5014784;28;20026;-78
2022/08/06 05:06:23;;;;;;;2.65;1.80;;;11.20;99.90;;;;;;5014534;28;20037;-78
2022/08/06 05:08:55;;;;;;;5.20;1.90;;;11.40;99.90;;;;;;5013425;28;20026;-78
2022/08/06 05:11:37;;;;;;;5.25;2.53;;;11.30;99.90;;;;;;5014986;28;20022;-78
2022/08/06 05:14:07;;;;;;;6.07;2.35;;;11.50;99.90;;;;;;5014771;28;20028;-78
2022/08/06 05:16:38;;;;;;;3.55;2.28;;;11.50;99.90;;;;;;5014583;28;20409;-79
2022/08/06 05:19:08;;;;;;;5.53;2.40;;;11.60;99.90;;;;;;5014625;28;20367;-78
2022/08/06 05:21:37;;;;;;;4.40;2.50;;;11.70;99.90;;;;;;5014833;28;20030;-78
2022/08/06 05:24:03;;;;;;;4.28;2.65;;;11.90;99.90;;;;;;5014497;28;20026;-79
2022/08/06 05:26:30;;;;;;;6.47;2.53;;;11.80;99.90;;;;;;5014383;28;20076;-78
2022/08/06 05:28:56;;;;;;;4.93;2.47;;;12.10;99.90;;;;;;5015089;28;20385;-78
2022/08/06 05:31:39;;;;;;;3.45;2.50;;;12.20;99.90;;;;;;5014155;28;20017;-78
2022/08/06 05:34:08;;;;;;;3.92;2.72;;;15.10;99.90;;;;;;5014610;28;20052;-78
2022/08/06 05:36:34;;;;;;;4.93;2.70;;;19.30;99.90;;;;;;5014644;28;20061;-78
2022/08/06 05:38:59;;;;;;;2.58;2.25;;;21.00;99.90;;;;;;5019716;28;20244;-78
2022/08/06 05:41:25;;;;;;;3.95;2.20;;;23.40;99.90;;;;;;5024119;28;20536;-78
2022/08/06 05:43:51;;;;;;;4.45;2.13;;;24.90;99.90;;;;;;5014317;28;20413;-79
2022/08/06 05:46:20;;;;;;;1.50;1.40;;;26.40;99.90;;;;;;5014000;28;20034;-79
2022/08/06 05:48:54;;;;;;;3.20;1.50;;;26.90;99.90;;;;;;5014561;28;20022;-78
2022/08/06 05:51:31;;;;;;;2.42;1.50;;;28.40;99.90;;;;;;5014312;28;20500;-79
2022/08/06 05:54:09;;;;;;;1.52;1.20;;;29.50;99.90;;;;;;5014385;28;20064;-79
2022/08/06 05:56:40;;;;;;;1.70;0.90;;;30.60;99.90;;;;;;5014209;28;20026;-79
2022/08/06 05:59:24;;;;;;;1.23;0.93;;;31.20;99.90;;;;;;5014132;28;20056;-79
2022/08/06 06:01:50;;;;;;;1.52;0.70;;;32.10;99.90;;;;;;5014152;28;20027;-79
2022/08/06 06:04:18;;;;;;;1.02;0.80;;;32.60;99.90;;;;;;5013906;28;20366;-79
2022/08/06 06:06:44;;;;;;;1.63;0.80;;;33.00;99.90;;;;;;5013892;28;20030;-79
2022/08/06 06:09:13;;;;;;;1.75;0.98;;;33.50;99.90;;;;;;5013980;28;20028;-79
2022/08/06 06:11:39;;;;;;;1.47;0.83;;;34.30;99.90;;;;;;5014051;28;20018;-79
2022/08/06 06:14:06;;;;;;;3.08;0.90;;;35.00;99.90;;;;;;5014114;28;20029;-79
2022/08/06 06:16:52;;;;;;;3.78;1.08;;;34.80;99.90;;;;;;5014214;28;20421;-80
2022/08/06 06:19:34;;;;;;;1.92;1.25;;;35.70;99.90;;;;;;5013819;28;20543;-80
2022/08/06 06:22:16;;;;;;;2.75;0.88;;;36.00;99.90;;;;;;5014037;28;20026;-80
2022/08/06 06:25:07;;;;;;;1.60;0.82;;;36.50;95.30;;;;;;5013801;28;20030;-79
2022/08/06 06:27:48;;;;;;;2.22;1.35;;;35.50;91.80;;;;;;5006907;28;20046;-80
2022/08/06 06:30:20;;;;;;;2.08;1.20;;;31.20;91.10;;;;;;5014011;28;20029;-80
2022/08/06 06:32:54;;;;;;;3.00;1.30;;;33.60;94.00;;;;;;5013905;28;20050;-80
2022/08/06 06:35:43;;;;;;;3.35;1.13;;;35.20;92.40;;;;;;5014847;28;20033;-80
2022/08/06 06:38:18;;;;;;;1.92;1.17;;;30.50;90.40;;;;;;5013232;28;20049;-80
2022/08/06 06:41:09;;;;;;;2.78;1.50;;;28.90;91.90;;;;;;5014317;28;20105;-80
2022/08/06 06:43:47;;;;;;;2.88;1.25;;;33.10;93.70;;;;;;5014207;28;20108;-80
2022/08/06 06:46:38;;;;;;;2.33;1.48;;;35.70;93.10;;;;;;5013598;28;20037;-80
2022/08/06 06:49:18;;;;;;;2.60;1.17;;;37.10;91.20;;;;;;5014011;28;20034;-80
2022/08/06 06:51:49;;;;;;;2.28;1.30;;;36.00;80.50;;;;;;5014018;28;20041;-80
2022/08/06 06:54:24;;;;;;;2.85;1.25;;;32.80;79.00;;;;;;5013860;28;20026;-80
2022/08/06 06:56:52;;;;;;;2.67;1.70;;;29.70;77.70;;;;;;5014197;28;20485;-80
2022/08/06 06:59:24;;;;;;;2.38;1.10;;;31.00;82.40;;;;;;5017174;28;20025;-80
2022/08/06 07:01:52;;;;;;;2.30;1.30;;;28.90;79.70;;;;;;5018191;28;20101;-80
2022/08/06 07:04:18;;;;;;;1.92;1.33;;;27.70;81.20;;;;;;5016545;28;20030;-80
2022/08/06 07:06:47;;;;;;;1.20;1.10;;;25.90;85.50;;;;;;5017591;28;20026;-80
2022/08/06 07:09:21;;;;;;;1.58;1.20;;;26.00;91.80;;;;;;5017837;28;20021;-80
2022/08/06 07:11:50;;;;;;;3.33;1.10;;;32.10;93.00;;;;;;5017422;28;20041;-80
2022/08/06 07:14:17;;;;;;;3.15;1.63;;;34.90;89.90;;;;;;5017323;28;20049;-80
2022/08/06 07:16:44;;;;;;;1.92;1.00;;;36.10;84.70;;;;;;5017369;28;20025;-81
2022/08/06 07:19:10;;;;;;;1.40;0.90;;;37.10;76.00;;;;;;5016018;28;20026;-81
2022/08/06 07:21:36;;;;;;;2.47;1.15;;;37.60;71.00;;;;;;5017281;28;20018;-80
2022/08/06 07:24:03;;;;;;;3.45;1.00;;;38.60;68.10;;;;;;5017408;28;20053;-80
2022/08/06 07:26:29;;;;;;;1.70;1.10;;;38.50;61.20;;;;;;5017553;28;20121;-80
2022/08/06 07:28:56;;;;;;;1.98;1.10;;;37.90;59.00;;;;;;5018376;28;20026;-80
2022/08/06 07:31:25;;;;;;;3.05;1.10;;;38.60;58.20;;;;;;5019180;28;20495;-81
2022/08/06 07:33:52;;;;;;;2.08;1.10;;;40.40;55.30;;;;;;5020901;28;20031;-80
2022/08/06 07:36:20;;;;;;;2.78;1.25;;;39.10;48.30;;;;;;5026344;28;20029;-80
2022/08/06 07:38:48;;;;;;;3.10;1.00;;;39.40;45.30;;;;;;5026086;28;20080;-80
2022/08/06 07:41:15;;;;;;;3.30;0.88;;;39.00;43.50;;;;;;5023303;28;20022;-80
2022/08/06 07:43:52;;;;;;;2.47;1.00;;;39.40;40.50;;;;;;5020972;28;20033;-80
2022/08/06 07:46:22;;;;;;;1.40;0.82;;;39.50;38.30;;;;;;5019654;28;20030;-80
2022/08/06 07:48:54;;;;;;;1.60;1.00;;;39.40;37.80;;;;;;5021399;28;20044;-80
2022/08/06 07:51:26;;;;;;;2.20;0.90;;;40.60;37.00;;;;;;5019838;28;20109;-81
2022/08/06 07:53:52;;;;;;;1.23;0.80;;;41.00;33.80;;;;;;5020947;28;20041;-81
2022/08/06 07:56:19;;;;;;;2.22;1.30;;;41.00;32.60;;;;;;5019151;28;20030;-80
2022/08/06 07:58:45;;;;;;;1.38;0.98;;;39.90;32.00;;;;;;5020894;28;20097;-80
2022/08/06 08:01:12;;;;;;;1.90;1.10;;;40.60;29.10;;;;;;5021570;28;20029;-80
2022/08/06 08:06:24;;;;;;;1.17;0.90;;;37.00;29.80;;;;;;5020278;28;20068;-80
2022/08/06 08:08:53;;;;;;;2.42;1.00;;;38.70;30.10;;;;;;5019668;28;20022;-80
2022/08/06 08:11:21;;;;;;;1.92;1.00;;;40.10;29.40;;;;;;5018983;28;20029;-80
2022/08/06 08:13:46;;;;;;;2.38;1.30;;;35.30;26.40;;;;;;5022438;28;20021;-80
2022/08/06 08:16:15;;;;;;;1.45;1.02;;;34.80;29.20;;;;;;5023001;28;20026;-80
2022/08/06 08:18:41;;;;;;;1.47;0.80;;;35.60;30.30;;;;;;5024112;28;20033;-81
2022/08/06 08:21:09;;;;;;;3.53;1.13;;;33.60;27.90;;;;;;5019901;28;20021;-81
2022/08/06 08:23:35;;;;;;;3.30;1.13;;;30.90;29.30;;;;;;5022920;28;20025;-80
2022/08/06 08:26:02;;;;;;;1.27;0.82;;;29.70;32.00;;;;;;5023651;28;20041;-80
2022/08/06 08:28:32;;;;;;;1.90;1.10;;;28.60;33.00;;;;;;5024200;28;20405;-80
2022/08/06 08:31:01;;;;;;;1.80;1.23;;;30.80;37.30;;;;;;5030125;28;20072;-80
2022/08/06 08:33:27;;;;;;;1.10;1.00;;;30.90;35.60;;;;;;5032560;28;20046;-80
2022/08/06 08:35:53;;;;;;;3.58;1.60;;;30.80;37.20;;;;;;5037506;28;20025;-80
2022/08/06 08:38:19;;;;;;;3.00;1.20;;;31.70;37.90;;;;;;5039364;28;20006;-80
2022/08/06 08:40:46;;;;;;;2.10;1.00;;;34.40;39.10;;;;;;5037820;28;20128;-81
2022/08/06 08:43:19;;;;;;;2.35;1.15;;;32.10;36.70;;;;;;5035561;28;20371;-81
2022/08/06 08:45:46;;;;;;;1.73;1.10;;;29.60;34.70;;;;;;5032064;28;20022;-81
2022/08/06 08:48:13;;;;;;;2.83;0.90;;;28.10;35.70;;;;;;5031320;28;20057;-81
2022/08/06 08:50:42;;;;;;;2.70;1.20;;;27.10;37.30;;;;;;5032593;28;20021;-81
2022/08/06 08:53:14;;;;;;;2.47;1.30;;;26.30;40.20;;;;;;5034169;28;20106;-81
2022/08/06 08:55:40;;;;;;;1.58;1.17;;;26.30;42.50;;;;;;5032475;28;20030;-81
2022/08/06 08:58:07;;;;;;;2.10;1.08;;;25.90;44.00;;;;;;5031719;28;20030;-81
2022/08/06 09:00:33;;;;;;;4.88;1.17;;;25.90;46.70;;;;;;5032637;28;20026;-80
2022/08/06 09:03:02;;;;;;;2.25;1.08;;;26.60;48.40;;;;;;5029985;28;20025;-81
2022/08/06 09:05:29;;;;;;;1.50;0.90;;;29.40;53.80;;;;;;5035832;28;20034;-81
2022/08/06 09:07:56;;;;;;;1.88;1.10;;;31.80;51.90;;;;;;5034351;28;20089;-80
2022/08/06 09:10:22;;;;;;;1.83;1.00;;;31.30;49.80;;;;;;5033800;28;20053;-81
2022/08/06 09:12:47;;;;;;;3.13;1.00;;;34.40;53.40;;;;;;5037568;28;20014;-81
2022/08/06 09:15:15;;;;;;;1.05;0.90;;;36.80;48.50;;;;;;5039046;28;20033;-81
2022/08/06 09:17:41;;;;;;;2.17;1.00;;;37.00;46.00;;;;;;5039191;28;20022;-81
2022/08/06 09:20:07;;;;;;;2.60;0.77;;;35.80;39.80;;;;;;5038973;28;20056;-82
2022/08/06 09:22:32;;;;;;;3.22;1.13;;;38.20;38.30;;;;;;5038729;28;20017;-81
2022/08/06 09:24:58;;;;;;;1.50;0.88;;;37.10;37.80;;;;;;5038283;28;20021;-80
2022/08/06 09:27:33;;;;;;;2.38;1.00;;;38.30;35.40;;;;;;5036060;28;20065;-81
2022/08/06 09:30:01;;;;;;;1.75;1.23;;;39.30;35.30;;;;;;5039185;28;20022;-81
2022/08/06 09:32:42;;;;;;;2.40;1.00;;;39.40;32.20;;;;;;5038883;28;20070;-81
2022/08/06 09:35:28;;;;;;;2.65;1.13;;;39.90;30.30;;;;;;5039329;28;20103;-81
2022/08/06 09:38:03;;;;;;;2.58;1.17;;;39.40;28.60;;;;;;5039067;28;20010;-80
2022/08/06 09:40:28;;;;;;;2.00;0.88;;;32.80;24.40;;;;;;5038920;28;20026;-81
2022/08/06 09:42:54;;;;;;;2.55;1.40;;;29.30;26.20;;;;;;5038264;28;20010;-81
2022/08/06 09:45:22;;;;;;;1.40;1.30;;;27.00;28.90;;;;;;5036580;28;20022;-81
2022/08/06 09:47:59;;;;;;;2.40;1.40;;;25.70;31.60;;;;;;5037941;28;20022;-80
2022/08/06 09:50:40;;;;;;;2.30;1.20;;;30.70;36.60;;;;;;5039482;28;20018;-79
2022/08/06 09:53:06;;;;;;;2.92;1.38;;;33.50;36.30;;;;;;5038912;28;20014;-80
2022/08/06 09:55:33;;;;;;;3.83;1.10;;;33.30;36.20;;;;;;5039339;28;20013;-81
2022/08/06 09:57:59;;;;;;;2.05;1.35;;;32.50;34.60;;;;;;5039236;28;20085;-80
2022/08/06 10:00:30;;;;;;;0.95;0.88;;;35.20;37.30;;;;;;5039170;28;20018;-81
2022/08/06 10:03:06;;;;;;;1.60;1.30;;;36.30;34.80;;;;;;5038843;28;20039;-80
2022/08/06 10:05:32;;;;;;;1.67;0.90;;;35.80;32.10;;;;;;5038805;28;20030;-81
2022/08/06 10:08:08;;;;;;;2.25;1.20;;;35.30;30.90;;;;;;5038843;28;20041;-80
2022/08/06 10:10:50;;;;;;;3.22;1.00;;;36.60;32.20;;;;;;5038730;28;20010;-80
2022/08/06 10:13:17;;;;;;;1.55;1.08;;;36.20;30.00;;;;;;5038735;28;20113;-80
2022/08/06 10:15:48;;;;;;;4.90;1.40;;;35.30;29.00;;;;;;5039009;28;20006;-81
2022/08/06 10:18:41;;;;;;;2.72;0.82;;;35.50;29.20;;;;;;5039199;28;20025;-81
2022/08/06 10:21:17;;;;;;;1.48;0.98;;;33.40;27.80;;;;;;5039008;28;20016;-80
2022/08/06 10:23:48;;;;;;;2.60;1.13;;;34.60;28.70;;;;;;5039092;28;20010;-80
2022/08/06 10:26:18;;;;;;;1.90;1.33;;;34.80;29.70;;;;;;5038966;28;20041;-81
2022/08/06 10:28:46;;;;;;;2.25;1.27;;;35.50;29.90;;;;;;5038906;28;20025;-80
2022/08/06 10:31:13;;;;;;;1.05;0.80;;;36.00;28.80;;;;;;5038988;28;20045;-80
2022/08/06 10:34:19;;;;;;;2.42;1.20;;;36.40;27.40;;;;;;5040998;28;20033;-80
2022/08/06 10:37:10;;;;;;;2.25;1.33;;;36.40;27.10;;;;;;5042597;28;20064;-81
2022/08/06 10:39:39;;;;;;;1.27;1.17;;;35.00;27.00;;;;;;5041802;28;20022;-80
2022/08/06 10:42:05;;;;;;;1.33;1.23;;;31.00;24.40;;;;;;5042877;28;20025;-80
2022/08/06 10:44:34;;;;;;;1.58;1.48;;;33.50;29.00;;;;;;5042852;28;20070;-80
2022/08/06 10:47:01;;;;;;;1.17;1.08;;;36.50;29.10;;;;;;5042750;28;20040;-80
2022/08/06 10:49:29;;;;;;;1.88;1.30;;;35.20;25.90;;;;;;5042645;28;20040;-80
2022/08/06 10:51:56;;;;;;;1.30;1.20;;;35.80;27.20;;;;;;5042749;28;20040;-80
2022/08/06 10:54:22;;;;;;;2.33;1.40;;;34.00;25.00;;;;;;5042690;28;20014;-81
2022/08/06 10:56:48;;;;;;;2.30;1.50;;;33.30;25.80;;;;;;5042420;28;20037;-80
2022/08/06 10:59:14;;;;;;;3.47;1.58;;;29.60;24.70;;;;;;5042560;28;20014;-80
2022/08/06 11:01:52;;;;;;;2.60;1.70;;;31.30;27.10;;;;;;5042521;28;20033;-81
2022/08/06 11:04:50;;;;;;;1.30;1.13;;;30.50;27.00;;;;;;5042452;28;20014;-80
2022/08/06 11:07:32;;;;;;;2.28;1.70;;;29.00;26.70;;;;;;5041900;28;20028;-80
2022/08/06 11:10:22;;;;;;;2.05;1.80;;;28.20;28.40;;;;;;5042348;28;20033;-80
2022/08/06 11:13:07;;;;;;;2.17;1.98;;;26.90;28.00;;;;;;5041900;28;20326;-80
2022/08/06 11:15:37;;;;;;;2.25;1.80;;;26.60;29.20;;;;;;5042319;28;20006;-81
2022/08/06 11:18:05;;;;;;;2.13;1.77;;;27.10;30.20;;;;;;5042133;28;20010;-80
2022/08/06 11:20:33;;;;;;;3.67;1.80;;;27.10;31.00;;;;;;5042167;28;20021;-80
2022/08/06 11:23:00;;;;;;;2.17;1.60;;;26.40;31.20;;;;;;5041923;28;20021;-81
2022/08/06 11:25:46;;;;;;;3.10;1.73;;;26.10;30.40;;;;;;5041993;28;20013;-80
2022/08/06 11:28:18;;;;;;;2.35;1.80;;;25.10;30.40;;;;;;5041720;28;20022;-81
2022/08/06 11:30:46;;;;;;;2.72;1.75;;;25.30;30.30;;;;;;5042041;28;20026;-81
2022/08/06 11:33:14;;;;;;;2.10;1.75;;;25.20;31.30;;;;;;5041614;28;20034;-79
2022/08/06 11:35:43;;;;;;;2.08;1.77;;;25.10;33.30;;;;;;5042071;28;20021;-80
2022/08/06 11:38:14;;;;;;;2.13;1.92;;;25.20;34.60;;;;;;5041944;28;20057;-79
2022/08/06 11:41:00;;;;;;;2.17;1.77;;;25.10;35.30;;;;;;5041837;28;20010;-80
2022/08/06 11:43:53;;;;;;;2.78;1.50;;;25.60;37.30;;;;;;5041466;28;20025;-80
2022/08/06 11:46:27;;;;;;;2.97;1.90;;;24.80;36.40;;;;;;5041674;28;20022;-80
2022/08/06 11:48:58;;;;;;;2.20;1.70;;;25.10;37.70;;;;;;5040925;28;20045;-81
2022/08/06 11:51:51;;;;;;;2.33;1.98;;;25.10;39.20;;;;;;5041584;28;20018;-80
2022/08/06 11:54:27;;;;;;;2.63;1.77;;;24.90;39.50;;;;;;5041362;28;20085;-80
2022/08/06 11:57:01;;;;;;;2.47;2.28;;;25.30;41.30;;;;;;5041562;28;20032;-80
2022/08/06 11:59:28;;;;;;;2.53;2.05;;;25.00;41.90;;;;;;5041405;28;20014;-80
2022/08/06 12:01:54;;;;;;;3.60;1.90;;;24.70;43.50;;;;;;5041489;28;20026;-81
2022/08/06 12:04:35;;;;;;;2.15;1.80;;;24.60;43.80;;;;;;5041172;28;20010;-80
2022/08/06 12:07:24;;;;;;;2.10;1.67;;;24.90;45.00;;;;;;5041071;28;20056;-80
2022/08/06 12:10:06;;;;;;;1.70;1.53;;;24.70;44.60;;;;;;5041380;28;20045;-81
2022/08/06 12:12:39;;;;;;;2.65;2.00;;;24.80;44.00;;;;;;5041275;28;20275;-80
2022/08/06 12:15:19;;;;;;;3.15;2.30;;;23.90;44.40;;;;;;5040979;28;20017;-80
2022/08/06 12:17:57;;;;;;;2.05;1.95;;;23.80;46.50;;;;;;5041159;28;20045;-80
2022/08/06 12:20:36;;;;;;;2.45;1.20;;;23.60;45.40;;;;;;5040400;28;20021;-80
2022/08/06 12:23:04;;;;;;;3.83;2.20;;;23.20;45.20;;;;;;5041042;28;20038;-80
2022/08/06 12:25:53;;;;;;;3.55;1.98;;;23.30;48.30;;;;;;5040975;28;20085;-80
2022/08/06 12:28:20;;;;;;;2.88;2.00;;;23.80;49.10;;;;;;5040882;28;20026;-80
2022/08/06 12:30:50;;;;;;;2.42;1.90;;;23.30;48.50;;;;;;5040771;28;20081;-80
2022/08/06 12:33:16;;;;;;;;;;;23.00;52.90;;;;;;5040794;28;20050;-80
2022/08/06 12:35:52;;;;;;;1.63;1.48;;;23.10;51.20;;;;;;5040802;28;19982;-79
2022/08/06 12:38:18;;;;;;;3.13;1.52;;;23.00;51.00;;;;;;5040677;28;20041;-79
2022/08/06 12:40:57;;;;;;;2.42;2.10;;;23.20;52.50;;;;;;5040722;28;20070;-80
2022/08/06 12:43:23;;;;;;;1.83;1.53;;;23.40;54.40;;;;;;5040500;28;20022;-79
2022/08/06 12:45:58;;;;;;;2.85;2.03;;;23.50;54.90;;;;;;5039935;28;20295;-80
2022/08/06 12:48:24;;;;;;;2.13;1.92;;;22.70;54.70;;;;;;5040547;28;20041;-80
2022/08/06 12:51:00;;;;;;;3.20;2.08;;;23.00;56.90;;;;;;5040399;28;20070;-80
2022/08/06 12:53:25;;;;;;;2.95;1.80;;;23.50;59.50;;;;;;5040357;28;20017;-81
2022/08/06 12:55:55;;;;;;;4.68;2.28;;;23.50;57.60;;;;;;5039681;28;20014;-80
2022/08/06 12:58:40;;;;;;;2.75;2.15;;;23.50;57.90;;;;;;5040371;28;20041;-80
2022/08/06 13:01:10;;;;;;;1.92;1.70;;;22.80;57.40;;;;;;5040173;28;20021;-80
2022/08/06 13:03:39;;;;;;;1.60;1.50;;;22.30;58.70;;;;;;5040149;28;20025;-80
2022/08/06 13:06:07;;;;;;;2.17;1.60;;;22.20;60.70;;;;;;5040052;28;20032;-79
2022/08/06 13:08:34;;;;;;;2.25;1.90;;;22.30;63.00;;;;;;5040016;28;20041;-80